createdAt,value
2022-10-18T00:01:32.048Z,101305.91
2022-10-18T00:03:59.728Z,101308.63
2022-10-18T00:06:27.395Z,101299.59
2022-10-18T00:08:55.286Z,101304.19
2022-10-18T00:11:23.030Z,101311.38
2022-10-18T00:13:50.719Z,101315.09
2022-10-18T00:16:18.529Z,101315.09
2022-10-18T00:18:48.187Z,101313.41
2022-10-18T00:21:16.288Z,101317.00
2022-10-18T00:23:44.138Z,101315.09
2022-10-18T00:26:11.875Z,101315.97
2022-10-18T00:28:39.747Z,101320.56
2022-10-18T00:31:07.582Z,101326.91
2022-10-18T00:33:35.588Z,101322.44
2022-10-18T00:36:03.306Z,101328.94
2022-10-18T00:38:31.073Z,101327.06
2022-10-18T00:41:00.663Z,101340.72
2022-10-18T00:43:28.562Z,101339.88
2022-10-18T00:45:56.224Z,101333.56
2022-10-18T00:48:23.999Z,101343.63
2022-10-18T00:50:51.732Z,101333.56
2022-10-18T00:53:19.448Z,101337.31
2022-10-18T00:55:47.140Z,101333.56
2022-10-18T00:58:14.807Z,101334.56
2022-10-18T01:00:42.669Z,101334.56
2022-10-18T01:03:10.725Z,101331.84
2022-10-18T01:05:38.493Z,101337.31
2022-10-18T01:08:06.254Z,101339.19
2022-10-18T01:10:34.170Z,101346.53
2022-10-18T01:13:02.512Z,101343.81
2022-10-18T01:15:30.288Z,101352.00
2022-10-18T01:17:57.978Z,101350.28
2022-10-18T01:20:25.865Z,101347.53
2022-10-18T01:22:53.778Z,101344.81
2022-10-18T01:25:21.711Z,101343.97
2022-10-18T01:27:49.503Z,101347.53
2022-10-18T01:30:17.189Z,101344.81
2022-10-18T01:32:45.350Z,101346.69
2022-10-18T01:35:13.108Z,101353.00
2022-10-18T01:37:40.825Z,101348.56
2022-10-18T01:40:08.608Z,101347.72
2022-10-18T01:42:36.400Z,101346.88
2022-10-18T01:45:04.115Z,101341.41
2022-10-18T01:47:32.105Z,101345.16
2022-10-18T01:50:00.566Z,101350.63
2022-10-18T01:52:28.376Z,101347.03
2022-10-18T01:54:56.189Z,101343.47
2022-10-18T01:57:23.913Z,101343.47
2022-10-18T01:59:51.597Z,101342.78
2022-10-18T02:02:19.663Z,101346.19
2022-10-18T02:04:47.401Z,101344.31
2022-10-18T02:07:15.124Z,101342.44
2022-10-18T02:09:42.861Z,101344.31
2022-10-18T02:12:10.566Z,101344.31
2022-10-18T02:14:38.240Z,101339.69
2022-10-18T02:17:05.888Z,101347.03
2022-10-18T02:19:34.291Z,101343.47
2022-10-18T02:22:02.010Z,101347.88
2022-10-18T02:24:29.768Z,101345.16
2022-10-18T02:26:57.457Z,101343.47
2022-10-18T02:29:25.184Z,101349.63
2022-10-18T02:31:52.870Z,101352.34
2022-10-18T02:34:20.579Z,101356.09
2022-10-18T02:36:48.577Z,101356.94
2022-10-18T02:39:16.292Z,101353.34
2022-10-18T02:41:44.084Z,101349.63
2022-10-18T02:44:11.795Z,101349.63
2022-10-18T02:46:39.610Z,101353.19
2022-10-18T02:49:07.341Z,101354.88
2022-10-18T02:51:35.166Z,101358.47
2022-10-18T02:54:02.977Z,101353.88
2022-10-18T02:56:30.743Z,101356.63
2022-10-18T02:58:58.452Z,101352.16
2022-10-18T03:01:25.705Z,101356.78
2022-10-18T03:03:53.547Z,101365.81
2022-10-18T03:06:21.344Z,101358.47
2022-10-18T03:08:49.197Z,101359.50
2022-10-18T03:11:17.050Z,101366.66
2022-10-18T03:13:44.881Z,101358.47
2022-10-18T03:16:12.974Z,101363.94
2022-10-18T03:18:40.821Z,101361.19
2022-10-18T03:21:08.757Z,101359.34
2022-10-18T03:23:36.541Z,101363.28
2022-10-18T03:26:04.369Z,101362.22
2022-10-18T03:28:32.242Z,101365.81
2022-10-18T03:31:00.136Z,101364.81
2022-10-18T03:33:28.029Z,101371.13
2022-10-18T03:35:55.870Z,101364.81
2022-10-18T03:38:23.652Z,101364.63
2022-10-18T03:40:51.511Z,101363.94
2022-10-18T03:43:19.347Z,101361.19
2022-10-18T03:45:47.155Z,101368.38
2022-10-18T03:48:14.931Z,101365.47
2022-10-18T03:50:42.749Z,101366.34
2022-10-18T03:53:10.474Z,101362.91
2022-10-18T03:55:38.327Z,101362.72
2022-10-18T03:58:06.134Z,101364.63
2022-10-18T04:00:33.901Z,101367.34
2022-10-18T04:03:01.793Z,101370.06
2022-10-18T04:05:31.183Z,101366.34
2022-10-18T04:07:58.965Z,101364.63
2022-10-18T04:10:26.850Z,101353.69
2022-10-18T04:12:54.679Z,101349.06
2022-10-18T04:15:22.473Z,101347.22
2022-10-18T04:17:50.529Z,101341.06
2022-10-18T04:20:18.328Z,101352.84
2022-10-18T04:22:46.158Z,101350.28
2022-10-18T04:25:14.034Z,101354.88
2022-10-18T04:27:41.907Z,101350.09
2022-10-18T04:30:09.686Z,101354.53
2022-10-18T04:32:37.520Z,101355.41
2022-10-18T04:35:05.410Z,101356.25
2022-10-18T04:37:33.552Z,101347.88
2022-10-18T04:40:01.631Z,101352.50
2022-10-18T04:42:29.468Z,101352.50
2022-10-18T04:44:57.371Z,101350.59
2022-10-18T04:47:25.138Z,101344.13
2022-10-18T04:49:53.089Z,101346.88
2022-10-18T04:52:20.873Z,101355.06
2022-10-18T04:54:48.787Z,101349.59
2022-10-18T04:57:16.598Z,101344.13
2022-10-18T04:59:44.322Z,101344.13
2022-10-18T05:02:12.159Z,101345.84
2022-10-18T05:04:39.895Z,101343.09
2022-10-18T05:07:07.754Z,101345.00
2022-10-18T05:09:35.589Z,101338.69
2022-10-18T05:12:03.401Z,101328.59
2022-10-18T05:14:31.331Z,101323.13
2022-10-18T05:16:59.229Z,101321.25
2022-10-18T05:19:27.051Z,101316.81
2022-10-18T05:21:54.903Z,101311.38
2022-10-18T05:24:25.465Z,101307.78
2022-10-18T05:26:55.588Z,101311.38
2022-10-18T05:29:23.556Z,101304.88
2022-10-18T05:31:51.446Z,101309.31
2022-10-18T05:34:20.671Z,101313.91
2022-10-18T05:36:49.467Z,101314.78
2022-10-18T05:39:17.230Z,101311.84
2022-10-18T05:41:44.989Z,101308.28
2022-10-18T05:44:12.878Z,101304.69
2022-10-18T05:46:40.656Z,101300.94
2022-10-18T05:49:08.403Z,101299.06
2022-10-18T05:51:36.204Z,101302.66
2022-10-18T05:54:04.132Z,101294.47
2022-10-18T05:56:31.970Z,101288.13
2022-10-18T05:59:00.197Z,101286.44
2022-10-18T06:01:28.389Z,101285.38
2022-10-18T06:03:56.162Z,101279.94
2022-10-18T06:06:23.918Z,101293.59
2022-10-18T06:08:51.730Z,101287.97
2022-10-18T06:11:19.697Z,101286.28
2022-10-18T06:13:47.648Z,101282.66
2022-10-18T06:16:15.560Z,101278.06
2022-10-18T06:18:43.377Z,101280.63
2022-10-18T06:21:11.165Z,101282.34
2022-10-18T06:23:38.940Z,101283.34
2022-10-18T06:26:06.708Z,101292.56
2022-10-18T06:31:26.546Z,101290.00
2022-10-18T06:33:54.424Z,101290.84
2022-10-18T06:36:22.229Z,101295.31
2022-10-18T06:38:50.042Z,101290.69
2022-10-18T06:41:17.967Z,101283.34
2022-10-18T06:43:45.692Z,101270.72
2022-10-18T06:46:13.449Z,101266.94
2022-10-18T06:48:41.190Z,101258.75
2022-10-18T06:51:09.036Z,101257.75
2022-10-18T06:53:43.772Z,101260.66
2022-10-18T06:56:21.129Z,101263.38
2022-10-18T06:58:49.089Z,101268.69
2022-10-18T07:01:17.054Z,101272.41
2022-10-18T07:03:44.871Z,101259.81
2022-10-18T07:06:12.694Z,101262.53
2022-10-18T07:08:40.613Z,101265.25
2022-10-18T07:11:08.661Z,101263.53
2022-10-18T07:13:36.465Z,101275.34
2022-10-18T07:16:04.598Z,101271.56
2022-10-18T07:18:32.403Z,101269.69
2022-10-18T07:21:00.305Z,101276.19
2022-10-18T07:23:28.127Z,101276.19
2022-10-18T07:25:55.939Z,101272.41
2022-10-18T07:28:23.785Z,101258.75
2022-10-18T07:30:51.594Z,101265.94
2022-10-18T07:33:20.681Z,101279.59
2022-10-18T07:35:48.455Z,101290.53
2022-10-18T07:38:18.050Z,101296.00
2022-10-18T07:40:45.828Z,101295.13
2022-10-18T07:43:13.689Z,101305.03
2022-10-18T07:45:41.926Z,101300.22
2022-10-18T07:48:09.718Z,101293.75
2022-10-18T07:50:37.552Z,101293.75
2022-10-18T07:53:05.398Z,101294.59
2022-10-18T07:55:33.197Z,101290.19
2022-10-18T07:58:00.971Z,101303.16
2022-10-18T08:00:28.757Z,101300.59
2022-10-18T08:02:56.530Z,101319.91
2022-10-18T08:05:24.434Z,101319.69
2022-10-18T08:07:52.207Z,101317.84
2022-10-18T08:10:20.038Z,101323.31
2022-10-18T08:12:47.978Z,101326.03
2022-10-18T08:15:15.949Z,101329.63
2022-10-18T08:17:44.348Z,101316.13
2022-10-18T08:20:29.435Z,101312.38
2022-10-18T08:23:00.325Z,101308.13
2022-10-18T08:25:28.467Z,101318.16
2022-10-18T08:27:56.335Z,101318.84
2022-10-18T08:30:24.664Z,101323.63
2022-10-18T08:32:52.562Z,101329.09
2022-10-18T08:35:20.333Z,101326.38
2022-10-18T08:37:48.637Z,101327.25
2022-10-18T08:40:16.420Z,101322.63
2022-10-18T08:42:44.280Z,101330.63
2022-10-18T08:45:17.779Z,101321.59
2022-10-18T08:47:57.966Z,101323.47
2022-10-18T08:50:25.783Z,101323.63
2022-10-18T08:52:53.618Z,101333.56
2022-10-18T08:55:21.429Z,101330.81
2022-10-18T08:57:49.282Z,101337.13
2022-10-18T09:00:17.289Z,101344.47
2022-10-18T09:02:45.160Z,101353.53
2022-10-18T09:05:13.092Z,101350.94
2022-10-18T09:07:40.954Z,101344.47
2022-10-18T09:10:09.171Z,101344.47
2022-10-18T09:12:37.126Z,101333.56
2022-10-18T09:15:04.978Z,101343.44
2022-10-18T09:17:32.751Z,101345.31
2022-10-18T09:22:28.436Z,101349.75
2022-10-18T09:24:56.157Z,101343.28
2022-10-18T09:27:24.179Z,101335.09
2022-10-18T09:29:55.257Z,101326.69
2022-10-18T09:32:24.054Z,101320.22
2022-10-18T09:34:52.850Z,101317.50
2022-10-18T09:37:20.952Z,101297.34
2022-10-18T09:39:48.697Z,101299.03
2022-10-18T09:42:16.562Z,101297.34
2022-10-18T09:44:44.392Z,101314.75
2022-10-18T09:47:16.949Z,101321.44
2022-10-18T09:49:45.049Z,101326.69
2022-10-18T09:52:12.884Z,101333.00
2022-10-18T09:54:40.648Z,101339.34
2022-10-18T09:57:08.486Z,101342.94
2022-10-18T09:59:36.277Z,101353.84
2022-10-18T10:02:04.185Z,101345.47
2022-10-18T10:04:31.984Z,101352.81
2022-10-18T10:06:59.832Z,101357.44
2022-10-18T10:09:29.447Z,101365.63
2022-10-18T10:11:57.332Z,101371.94
2022-10-18T10:14:26.525Z,101375.38
2022-10-18T10:16:54.514Z,101372.63
2022-10-18T10:19:22.324Z,101375.38
2022-10-18T10:21:50.196Z,101366.31
2022-10-18T10:24:18.167Z,101368.00
2022-10-18T10:26:47.466Z,101360.66
2022-10-18T10:29:17.592Z,101363.25
2022-10-18T10:31:50.949Z,101357.09
2022-10-18T10:34:18.735Z,101365.28
2022-10-18T10:36:46.512Z,101360.50
2022-10-18T10:39:18.414Z,101359.81
2022-10-18T10:41:46.276Z,101361.53
2022-10-18T10:44:14.131Z,101361.69
2022-10-18T10:46:45.245Z,101366.13
2022-10-18T10:49:38.636Z,101374.31
2022-10-18T10:52:08.769Z,101378.78
2022-10-18T10:54:51.599Z,101374.50
2022-10-18T10:57:20.313Z,101374.50
2022-10-18T10:59:48.088Z,101376.22
2022-10-18T11:02:17.638Z,101381.50
2022-10-18T11:04:45.528Z,101373.47
2022-10-18T11:07:13.333Z,101373.47
2022-10-18T11:09:41.196Z,101365.28
2022-10-18T11:12:09.042Z,101365.28
2022-10-18T11:14:36.820Z,101361.53
2022-10-18T11:17:07.897Z,101363.25
2022-10-18T11:19:36.028Z,101363.25
2022-10-18T11:22:03.773Z,101363.94
2022-10-18T11:24:31.646Z,101375.84
2022-10-18T11:26:59.436Z,101382.38
2022-10-18T11:29:27.276Z,101384.75
2022-10-18T11:31:55.105Z,101385.78
2022-10-18T11:34:23.144Z,101385.78
2022-10-18T11:36:57.998Z,101379.28
2022-10-18T11:39:39.069Z,101372.28
2022-10-18T11:42:06.937Z,101381.31
2022-10-18T11:44:34.754Z,101384.06
2022-10-18T11:47:02.548Z,101395.88
2022-10-18T11:49:30.417Z,101396.72
2022-10-18T11:52:07.875Z,101403.88
2022-10-18T11:54:36.503Z,101402.19
2022-10-18T11:57:04.350Z,101409.34
2022-10-18T11:59:32.124Z,101397.06
2022-10-18T12:01:59.942Z,101396.19
2022-10-18T12:04:28.016Z,101400.78
2022-10-18T12:06:55.861Z,101400.63
2022-10-18T12:09:23.724Z,101400.78
2022-10-18T12:11:55.836Z,101392.44
2022-10-18T12:14:24.317Z,101385.25
2022-10-18T12:17:07.707Z,101395.19
2022-10-18T12:19:40.368Z,101390.72
2022-10-18T12:22:08.117Z,101390.56
2022-10-18T12:24:35.895Z,101395.88
2022-10-18T12:27:03.684Z,101386.78
2022-10-18T12:29:31.529Z,101384.06
2022-10-18T12:31:59.389Z,101381.31
2022-10-18T12:34:27.315Z,101387.66
2022-10-18T12:36:55.198Z,101384.94
2022-10-18T12:39:32.456Z,101381.16
2022-10-18T12:42:11.243Z,101381.31
2022-10-18T12:44:39.110Z,101381.16
2022-10-18T12:47:06.910Z,101380.31
2022-10-18T12:49:34.933Z,101376.53
2022-10-18T12:52:02.682Z,101365.63
2022-10-18T12:54:30.494Z,101369.19
2022-10-18T12:56:58.246Z,101379.28
2022-10-18T12:59:26.904Z,101375.69
2022-10-18T13:01:54.849Z,101378.44
2022-10-18T13:04:22.702Z,101376.53
2022-10-18T13:06:50.485Z,101369.38
2022-10-18T13:09:18.308Z,101370.22
2022-10-18T13:11:46.104Z,101371.09
2022-10-18T13:14:13.897Z,101369.38
2022-10-18T13:16:41.764Z,101363.72
2022-10-18T13:19:09.501Z,101373.81
2022-10-18T13:24:30.563Z,101359.47
2022-10-18T13:27:04.015Z,101360.34
2022-10-18T13:29:44.051Z,101364.09
2022-10-18T13:32:11.964Z,101374.84
2022-10-18T13:34:39.817Z,101362.19
2022-10-18T13:37:07.620Z,101375.69
2022-10-18T13:39:35.405Z,101382.00
2022-10-18T13:42:03.176Z,101379.16
2022-10-18T13:44:31.973Z,101384.63
2022-10-18T13:47:03.527Z,101382.84
2022-10-18T13:49:31.305Z,101384.75
2022-10-18T13:51:59.248Z,101391.97
2022-10-18T13:54:27.039Z,101391.97
2022-10-18T13:56:54.894Z,101391.97
2022-10-18T13:59:22.801Z,101391.97
2022-10-18T14:01:53.150Z,101394.69
2022-10-18T14:04:21.221Z,101405.63
2022-10-18T14:06:49.027Z,101411.94
2022-10-18T14:09:26.165Z,101414.66
2022-10-18T14:12:04.659Z,101405.91
2022-10-18T14:14:34.430Z,101404.91
2022-10-18T14:17:02.216Z,101400.16
2022-10-18T14:19:30.003Z,101404.59
2022-10-18T14:21:57.782Z,101410.91
2022-10-18T14:24:25.688Z,101408.34
2022-10-18T14:26:53.471Z,101409.22
2022-10-18T14:29:21.470Z,101409.22
2022-10-18T14:31:49.546Z,101411.09
2022-10-18T14:34:17.354Z,101411.09
2022-10-18T14:36:45.136Z,101410.91
2022-10-18T14:39:13.061Z,101411.75
2022-10-18T14:41:40.817Z,101407.31
2022-10-18T14:44:08.620Z,101400.16
2022-10-18T14:46:36.412Z,101400.16
2022-10-18T14:49:04.170Z,101393.78
2022-10-18T14:51:31.947Z,101390.94
2022-10-18T14:53:59.758Z,101408.16
2022-10-18T14:56:27.575Z,101405.44
2022-10-18T14:58:55.387Z,101408.34
2022-10-18T15:01:23.136Z,101409.22
2022-10-18T15:03:51.074Z,101402.91
2022-10-18T15:06:19.088Z,101403.88
2022-10-18T15:08:46.861Z,101403.03
2022-10-18T15:11:14.704Z,101401.31
2022-10-18T15:13:42.565Z,101405.63
2022-10-18T15:16:16.249Z,101407.63
2022-10-18T15:18:44.020Z,101412.25
2022-10-18T15:21:11.852Z,101402.19
2022-10-18T15:23:39.643Z,101401.13
2022-10-18T15:26:07.466Z,101406.59
2022-10-18T15:28:36.070Z,101407.63
2022-10-18T15:31:03.824Z,101398.41
2022-10-18T15:33:34.469Z,101403.03
2022-10-18T15:36:02.339Z,101397.44
2022-10-18T15:38:32.254Z,101403.88
2022-10-18T15:40:59.927Z,101393.78
2022-10-18T15:43:27.721Z,101396.53
2022-10-18T15:45:57.724Z,101394.81
2022-10-18T15:48:27.937Z,101398.41
2022-10-18T15:50:55.585Z,101398.41
2022-10-18T15:53:23.927Z,101400.16
2022-10-18T15:55:52.303Z,101406.47
2022-10-18T15:58:19.992Z,101398.41
2022-10-18T16:00:47.711Z,101399.25
2022-10-18T16:03:21.723Z,101399.25
2022-10-18T16:05:49.398Z,101398.41
2022-10-18T16:08:17.128Z,101394.81
2022-10-18T16:10:44.834Z,101400.28
2022-10-18T16:13:12.565Z,101405.63
2022-10-18T16:15:40.224Z,101406.47
2022-10-18T16:18:07.970Z,101401.00
2022-10-18T16:20:36.514Z,101410.06
2022-10-18T16:23:04.389Z,101414.66
2022-10-18T16:25:32.059Z,101415.66
2022-10-18T16:27:59.976Z,101422.03
2022-10-18T16:30:27.692Z,101421.84
2022-10-18T16:32:55.404Z,101424.22
2022-10-18T16:35:23.186Z,101432.25
2022-10-18T16:37:50.833Z,101436.53
2022-10-18T16:42:51.114Z,101436.66
2022-10-18T16:45:18.822Z,101441.13
2022-10-18T16:47:46.611Z,101445.56
2022-10-18T16:50:16.858Z,101441.81
2022-10-18T16:52:44.741Z,101450.50
2022-10-18T16:55:21.215Z,101448.81
2022-10-18T16:57:48.868Z,101443.34
2022-10-18T17:00:16.660Z,101434.28
2022-10-18T17:02:44.634Z,101443.50
2022-10-18T17:05:12.276Z,101437.00
2022-10-18T17:07:42.218Z,101446.25
2022-10-18T17:10:09.905Z,101447.09
2022-10-18T17:12:37.637Z,101445.56
2022-10-18T17:15:05.288Z,101449.69
2022-10-18T17:17:33.591Z,101452.41
2022-10-18T17:20:01.572Z,101458.03
2022-10-18T17:22:29.242Z,101460.78
2022-10-18T17:24:57.239Z,101456.00
2022-10-18T17:27:25.760Z,101456.00
2022-10-18T17:29:53.507Z,101464.88
2022-10-18T17:32:21.196Z,101464.88
2022-10-18T17:34:48.901Z,101460.25
2022-10-18T17:37:16.590Z,101467.44
2022-10-18T17:39:44.249Z,101464.69
2022-10-18T17:42:11.964Z,101471.19
2022-10-18T17:44:39.715Z,101464.69
2022-10-18T17:47:07.657Z,101471.88
2022-10-18T17:49:35.331Z,101461.81
2022-10-18T17:52:06.184Z,101465.38
2022-10-18T17:54:34.889Z,101468.13
2022-10-18T17:57:02.652Z,101461.59
2022-10-18T17:59:30.324Z,101471.53
2022-10-18T18:01:58.002Z,101469.66
2022-10-18T18:04:26.153Z,101470.50
2022-10-18T18:06:54.082Z,101474.06
2022-10-18T18:09:22.134Z,101462.28
2022-10-18T18:11:50.795Z,101459.56
2022-10-18T18:14:18.475Z,101459.56
2022-10-18T18:16:46.207Z,101471.53
2022-10-18T18:19:14.020Z,101460.59
2022-10-18T18:21:41.743Z,101467.75
2022-10-18T18:24:10.276Z,101462.28
2022-10-18T18:26:38.021Z,101465.03
2022-10-18T18:29:05.717Z,101459.56
2022-10-18T18:31:38.704Z,101458.72
2022-10-18T18:34:09.611Z,101463.34
2022-10-18T18:36:37.355Z,101465.88
2022-10-18T18:39:05.703Z,101470.50
2022-10-18T18:41:33.495Z,101465.22
2022-10-18T18:44:01.649Z,101473.41
2022-10-18T18:46:29.820Z,101471.69
2022-10-18T18:48:58.032Z,101470.84
2022-10-18T18:51:26.233Z,101478.88
2022-10-18T18:53:53.968Z,101483.47
2022-10-18T18:58:49.903Z,101470.84
2022-10-18T19:01:18.514Z,101473.59
2022-10-18T19:03:46.290Z,101474.78
2022-10-18T19:06:14.349Z,101469.81
2022-10-18T19:08:42.078Z,101472.38
2022-10-18T19:11:10.075Z,101474.09
2022-10-18T19:13:37.874Z,101477.50
2022-10-18T19:16:05.752Z,101485.56
2022-10-18T19:18:33.645Z,101491.00
2022-10-18T19:21:02.705Z,101481.78
2022-10-18T19:23:30.696Z,101485.56
2022-10-18T19:25:58.386Z,101486.41
2022-10-18T19:28:26.067Z,101483.47
2022-10-18T19:30:56.192Z,101488.94
2022-10-18T19:33:41.146Z,101489.97
2022-10-18T19:36:11.761Z,101495.44
2022-10-18T19:38:39.663Z,101493.75
2022-10-18T19:41:07.330Z,101497.31
2022-10-18T19:43:35.004Z,101499.03
2022-10-18T19:46:02.658Z,101491.66
2022-10-18T19:48:30.614Z,101493.56
2022-10-18T19:50:58.281Z,101498.19
2022-10-18T19:53:25.940Z,101496.47
2022-10-18T19:55:53.715Z,101503.66
2022-10-18T19:58:21.348Z,101505.69
2022-10-18T20:00:49.303Z,101507.41
2022-10-18T20:03:17.047Z,101501.06
2022-10-18T20:05:44.722Z,101496.47
2022-10-18T20:08:12.362Z,101500.06
2022-10-18T20:10:40.059Z,101493.06
2022-10-18T20:13:07.745Z,101500.22
2022-10-18T20:15:35.548Z,101505.69
2022-10-18T20:18:03.249Z,101499.53
2022-10-18T20:20:31.072Z,101503.13
2022-10-18T20:22:59.009Z,101504.69
2022-10-18T20:25:26.678Z,101509.09
2022-10-18T20:27:54.374Z,101509.81
2022-10-18T20:30:22.052Z,101510.66
2022-10-18T20:32:49.782Z,101507.72
2022-10-18T20:35:17.614Z,101511.16
2022-10-18T20:37:45.280Z,101506.53
2022-10-18T20:40:12.963Z,101504.69
2022-10-18T20:42:40.840Z,101507.41
2022-10-18T20:45:08.972Z,101504.69
2022-10-18T20:47:36.771Z,101511.16
2022-10-18T20:50:04.531Z,101519.34
2022-10-18T20:52:32.241Z,101525.84
2022-10-18T20:55:00.159Z,101522.44
2022-10-18T20:57:29.055Z,101526.53
2022-10-18T20:59:58.342Z,101523.81
2022-10-18T21:02:26.161Z,101521.25
2022-10-18T21:04:53.893Z,101528.25
2022-10-18T21:07:21.602Z,101531.81
2022-10-18T21:09:49.567Z,101532.00
2022-10-18T21:12:17.264Z,101530.47
2022-10-18T21:14:44.984Z,101532.31
2022-10-18T21:17:12.855Z,101529.78
2022-10-18T21:19:40.509Z,101529.78
2022-10-18T21:22:08.191Z,101536.09
2022-10-18T21:24:35.950Z,101541.75
2022-10-18T21:27:03.610Z,101548.06
2022-10-18T21:29:31.861Z,101553.53
2022-10-18T21:32:00.906Z,101556.25
2022-10-18T21:34:28.584Z,101561.53
2022-10-18T21:36:56.317Z,101563.44
2022-10-18T21:41:56.663Z,101549.06
2022-10-18T21:44:24.362Z,101550.78
2022-10-18T21:46:52.092Z,101547.22
2022-10-18T21:49:19.927Z,101542.59
2022-10-18T21:51:47.810Z,101550.78
2022-10-18T21:54:15.513Z,101548.06
2022-10-18T21:56:43.315Z,101549.94
2022-10-18T21:59:10.990Z,101536.44
2022-10-18T22:01:38.711Z,101540.88
2022-10-18T22:04:06.413Z,101539.19
2022-10-18T22:09:07.208Z,101539.19
2022-10-18T22:11:34.861Z,101535.59
2022-10-18T22:14:02.620Z,101546.53
2022-10-18T22:16:30.390Z,101534.06
2022-10-18T22:18:58.060Z,101532.16
2022-10-18T22:21:25.875Z,101524.13
2022-10-18T22:23:53.573Z,101518.50
2022-10-18T22:29:13.289Z,101524.13
2022-10-18T22:31:46.448Z,101526.69
2022-10-18T22:34:14.172Z,101534.06
2022-10-18T22:36:42.103Z,101534.06
2022-10-18T22:39:09.747Z,101531.31
2022-10-18T22:41:37.453Z,101527.41
2022-10-18T22:44:05.237Z,101536.44
2022-10-18T22:46:32.935Z,101527.56
2022-10-18T22:49:00.871Z,101526.53
2022-10-18T22:51:28.573Z,101517.31
2022-10-18T22:53:56.293Z,101522.78
2022-10-18T22:56:23.974Z,101522.94
2022-10-18T22:58:51.744Z,101523.97
2022-10-18T23:01:19.407Z,101520.38
2022-10-18T23:03:47.106Z,101520.38
2022-10-18T23:06:14.792Z,101524.81
2022-10-18T23:08:42.487Z,101526.84
2022-10-18T23:11:10.427Z,101532.31
2022-10-18T23:13:39.583Z,101532.31
2022-10-18T23:16:07.828Z,101527.75
2022-10-18T23:18:35.578Z,101532.31
2022-10-18T23:21:03.520Z,101539.53
2022-10-18T23:23:31.485Z,101537.78
2022-10-18T23:25:59.212Z,101540.53
2022-10-18T23:28:27.291Z,101539.88
2022-10-18T23:30:55.042Z,101536.09
2022-10-18T23:33:23.174Z,101541.56
2022-10-18T23:35:50.847Z,101543.44
2022-10-18T23:38:18.513Z,101548.72
2022-10-18T23:40:46.295Z,101542.59
2022-10-18T23:43:14.062Z,101548.22
2022-10-18T23:45:42.484Z,101538.13
2022-10-18T23:48:10.466Z,101542.59
2022-10-18T23:50:38.121Z,101537.13
2022-10-18T23:53:06.101Z,101543.59
2022-10-18T23:55:33.937Z,101547.38
2022-10-18T23:58:01.690Z,101548.22
